Main page
Satellite images 15-day forecastsClimateMarine weather Cyclones Lightning AirportsFAQ Newsletter About
Weather : Europe Africa North America South America Asia Australia-Oceania Others
Languages Contact

Tehran, Iran

Mehrabad

latitude: 35-41N, longitude: 051-21E, elevation: 1204 m


METAR: OIII 281030Z 24006KT 9999 FEW035 33/M02 Q1015 A2997
short-TAF: out of date (2232 hours)
long-TAF: OIII 281100Z 2812/2918 14005MPS 8000 FEW035 TEMPO 2812/2818 24008MPS 6000 FEW035CB SCT040 SCT100

Time: 15:33 (11:03 UTC)

Current weather observation

The report was made 33 minutes ago, at 10:30 UTC  
Wind 06 kt from the West/Southwest
Temperature 33°C
Humidity 10%
Pressure 1015 hPa
Visibility 10 km or more
Few clouds at a height of 3500 ft

Change units

Forecast

The report was made 3 minutes ago, at 11:00 UTC  
Forecast valid from 28 at 12 UTC to 29 at 18 UTC
Wind 10 kt from the Southeast
Visibility 8000 m
Few clouds at a height of 3500 ft
Temporary
from 28 at 12 UTC to 28 at 18 UTC
Wind 16 kt from the West/Southwest
Visibility 6000 m
Few clouds at a height of 3500 ft , Cumulonimbus.
Scattered clouds at a height of 4000 ft
Scattered clouds at a height of 10000 ft
The information on this site is subject to a disclaimer
Weather : Europe Africa North America South America Asia Australia-Oceania Others
Satellite images 15-day forecastsClimateMarine weather Cyclones Lightning AirportsFAQ Languages Contact Newsletter About